• Join FlightAware (Why Join?)
  • Login
  • US Flag 
10:19PM EDT


 

Airport Tracker/Info


-or-


 

Live Flight TrackerFlight Track Log ✈ N866TC ✈ 20-Jul-2013 ✈ KPOU - KSGF

Flight Track Log - Related Links

Times and Time Zones

All times are in EDT time to prevent confusion due to time zone crossing. See the N866TC flight status page for this flight to view local times or setup timezone preferences in your user account.

Time Position Orientation Groundspeed Altitude Reporting Facility
EDT Latitude Longitude Course Direction KTS MPH feet Rate Location/Type
04:00PM 41.5647 -74.1158 262° West 226 260 6,900  Level Boston Center
04:01PM 41.5531 -74.2072 260° West 226 260 8,600 2,280 Climbing Boston Center
04:03PM 41.6286 -74.3317 309° West 258 297 13,100 2,580 Climbing New York Center
04:04PM 41.6742 -74.4064 309° West 281 323 15,600 1,980 Climbing New York Center
04:05PM 41.6664 -74.5253 265° West 281 323 17,000 660 Climbing New York Center
04:06PM 41.6442 -74.6322 254° West 320 368 17,000 780 Level New York Center
04:07PM 41.6189 -74.7667 256° West 347 399 18,700 1,860 Climbing New York Center
04:08PM 41.5939 -74.8900 255° West 347 399 20,800 2,040 Climbing New York Center
04:09PM 41.5731 -75.0053 256° West 340 391 22,800 1,800 Climbing New York Center
04:10PM 41.5506 -75.1064 253° West 332 382 24,400 1,920 Climbing New York Center
04:11PM 41.5272 -75.2322 256° West 326 375 26,800 2,160 Climbing New York Center
04:12PM 41.5042 -75.3442 255° West 320 368 28,800 1,800 Climbing New York Center
04:13PM 41.4839 -75.4397 254° West 309 356 30,400 1,920 Climbing New York Center
04:14PM 41.4997 -75.5600 280° West 302 348 32,800 2,040 Climbing New York Center
04:15PM 41.5250 -75.6589 289° West 302 348 34,500 1,800 Climbing New York Center
04:16PM 41.5328 -75.7731 275° West 296 341 36,400 1,320 Climbing New York Center
04:17PM 41.5200 -75.8744 260° West 302 348 37,300 960 Climbing New York Center
04:18PM 41.5083 -75.9983 263° West 311 358 38,400 1,020 Climbing New York Center
04:19PM 41.4969 -76.1164 263° West 316 364 39,400 900 Climbing New York Center
04:20PM 41.4808 -76.2397 260° West 327 376 40,300 660 Climbing New York Center
04:21PM 41.4664 -76.3689 262° West 360 414 40,800 480 Climbing New York Center
04:22PM 41.4519 -76.5006 262° West 365 420 41,300 420 Climbing New York Center
04:23PM 41.4350 -76.6319 260° West 365 420 41,700 480 Climbing New York Center
04:24PM 41.4186 -76.7550 260° West 365 420 42,300 540 Climbing New York Center
04:25PM 41.4036 -76.8836 261° West 360 414 42,800 300 Climbing New York Center
04:26PM 41.3867 -77.0094 260° West 360 414 43,000 60 Climbing New York Center
04:27PM 41.3694 -77.1378 260° West 360 414 43,000  Level New York Center
04:28PM 41.3539 -77.2689 261° West 360 414 43,000  Level New York Center
04:29PM 41.3364 -77.4000 260° West 360 414 43,000  Level New York Center
04:31PM 41.3036 -77.6586 261° West 357 411 43,000  Level Cleveland Center
04:32PM 41.2878 -77.7781 260° West 357 411 43,000  Level Cleveland Center
04:33PM 41.2719 -77.9058 261° West 357 411 43,000  Level Cleveland Center
04:34PM 41.2561 -78.0308 260° West 357 411 43,000  Level Cleveland Center
04:35PM 41.2381 -78.1614 260° West 357 411 43,000  Level Cleveland Center
04:36PM 41.2181 -78.3031 259° West 357 411 43,000  Level Cleveland Center
04:37PM 41.2039 -78.4333 262° West 357 411 43,000  Level Cleveland Center
04:38PM 41.1856 -78.5608 259° West 357 411 43,000  Level Cleveland Center
04:39PM 41.1667 -78.6856 259° West 357 411 43,000  Level Cleveland Center
04:40PM 41.1500 -78.8128 260° West 357 411 43,000  Level Cleveland Center
04:41PM 41.1311 -78.9428 259° West 357 411 43,000  Level Cleveland Center
04:42PM 41.1139 -79.0644 259° West 357 411 43,000  Level Cleveland Center
04:43PM 41.0947 -79.1917 259° West 351 404 43,000  Level Cleveland Center
04:44PM 41.0775 -79.3161 260° West 351 404 43,000  Level Cleveland Center
04:45PM 41.0622 -79.4403 261° West 351 404 43,000  Level Cleveland Center
04:46PM 41.0425 -79.5644 258° West 351 404 43,000  Level Cleveland Center
04:47PM 41.0225 -79.6914 258° West 351 404 43,000  Level Cleveland Center
04:48PM 41.0047 -79.8128 259° West 351 404 43,000  Level Cleveland Center
04:49PM 40.9867 -79.9394 259° West 351 404 43,000  Level Cleveland Center
04:50PM 40.9686 -80.0661 259° West 351 404 43,000  Level Cleveland Center
04:51PM 40.9483 -80.1900 258° West 351 404 43,000  Level Cleveland Center
04:52PM 40.9300 -80.3164 259° West 351 404 43,000  Level Cleveland Center
04:53PM 40.9092 -80.4403 257° West 351 404 43,000  Level Cleveland Center
04:54PM 40.8928 -80.5667 260° West 351 404 43,000  Level Cleveland Center
04:55PM 40.8717 -80.6903 257° West 351 404 43,000  Level Cleveland Center
04:56PM 40.8528 -80.8028 258° West 351 404 43,000  Level Cleveland Center
04:57PM 40.8339 -80.9289 259° West 351 404 43,000  Level Cleveland Center
04:58PM 40.8083 -81.0550 255° West 351 404 43,000  Level Cleveland Center
04:59PM 40.7889 -81.1836 259° West 356 410 43,000  Level Cleveland Center
05:00PM 40.7675 -81.3069 257° West 356 410 43,000  Level Cleveland Center
05:01PM 40.7478 -81.4328 258° West 356 410 43,000  Level Cleveland Center
05:03PM 40.7061 -81.6886 258° West 352 405 43,000  Level Indianapolis Center
05:04PM 40.6847 -81.8144 257° West 349 402 43,000  Level Indianapolis Center
05:05PM 40.6636 -81.9392 257° West 347 399 43,000  Level Indianapolis Center
05:06PM 40.6425 -82.0636 257° West 344 396 43,000  Level Indianapolis Center
05:07PM 40.6211 -82.1878 257° West 345 397 43,000  Level Indianapolis Center
05:08PM 40.6006 -82.3128 258° West 345 397 43,000  Level Indianapolis Center
05:09PM 40.5794 -82.4378 258° West 347 399 43,000  Level Indianapolis Center
05:10PM 40.5567 -82.5636 257° West 349 402 43,000  Level Indianapolis Center
05:11PM 40.5353 -82.6897 257° West 350 403 43,000  Level Indianapolis Center
05:12PM 40.5111 -82.8281 257° West 352 405 43,000  Level Indianapolis Center
05:13PM 40.4889 -82.9517 257° West 346 398 43,000  Level Indianapolis Center
05:14PM 40.4661 -83.0769 257° West 350 403 43,000  Level Indianapolis Center
05:15PM 40.4431 -83.2017 256° West 350 403 43,000  Level Indianapolis Center
05:16PM 40.4214 -83.3269 257° West 352 405 43,000  Level Indianapolis Center
05:17PM 40.3978 -83.4539 256° West 355 409 43,000  Level Indianapolis Center
05:18PM 40.3747 -83.5819 257° West 360 414 43,000  Level Indianapolis Center
05:19PM 40.3469 -83.7325 256° West 363 418 43,000  Level Indianapolis Center
05:20PM 40.3225 -83.8611 256° West 364 419 43,000  Level Indianapolis Center
05:21PM 40.2978 -83.9897 256° West 362 417 43,000  Level Indianapolis Center
05:22PM 40.2733 -84.1183 256° West 361 415 43,000  Level Indianapolis Center
05:23PM 40.2494 -84.2469 256° West 361 415 43,000  Level Indianapolis Center
05:24PM 40.2247 -84.3731 256° West 357 411 43,000  Level Indianapolis Center
05:26PM 40.2000 -84.4986 256° West 354 407 43,000  Level Indianapolis Center
05:27PM 40.1750 -84.6244 255° West 355 409 43,000  Level Indianapolis Center
05:28PM 40.1506 -84.7503 256° West 354 407 43,000  Level Indianapolis Center
05:29PM 40.1261 -84.8778 256° West 357 411 43,100 240 Climbing Indianapolis Center
05:30PM 40.1014 -84.9939 254° West 355 409 43,600 480 Climbing Indianapolis Center
05:31PM 40.0731 -85.1425 256° West 353 406 44,200 480 Climbing Indianapolis Center
05:32PM 40.0475 -85.2664 255° West 353 406 44,700 360 Climbing Indianapolis Center
05:33PM 40.0219 -85.3875 255° West 349 402 45,000 120 Climbing Indianapolis Center
05:34PM 39.9983 -85.5139 256° West 358 412 45,000  Level Indianapolis Center
05:35PM 39.9717 -85.6400 255° West 363 418 45,000  Level Indianapolis Center
05:36PM 39.9458 -85.7667 255° West 364 419 45,000  Level Indianapolis Center
05:37PM 39.9200 -85.8906 255° West 358 412 45,000  Level Indianapolis Center
05:38PM 39.8947 -86.0131 255° West 355 409 45,000  Level Indianapolis Center
05:39PM 39.8653 -86.1586 255° West 351 404 45,000  Level Indianapolis Center
05:40PM 39.8372 -86.2828 254° West 356 410 45,000  Level Indianapolis Center
05:41PM 39.8111 -86.4058 255° West 354 407 45,000  Level Indianapolis Center
05:42PM 39.7878 -86.5222 255° West 359 413 45,000  Level Indianapolis Center
05:43PM 39.7608 -86.6442 254° West 356 410 45,000  Level Indianapolis Center
05:44PM 39.7342 -86.7689 254° West 361 415 45,000  Level Indianapolis Center
05:45PM 39.7017 -86.9197 254° West 364 419 45,000  Level Indianapolis Center
05:46PM 39.6739 -87.0442 254° West 363 418 45,000  Level Indianapolis Center
05:47PM 39.6475 -87.1631 254° West 348 400 45,000  Level Indianapolis Center
05:48PM 39.6214 -87.2806 254° West 341 392 45,000  Level Indianapolis Center
05:49PM 39.5964 -87.3983 255° West 340 391 45,000  Level Indianapolis Center
05:50PM 39.5689 -87.5156 253° West 342 394 45,000  Level Indianapolis Center
05:51PM 39.5422 -87.6342 254° West 344 396 45,000  Level Indianapolis Center
05:52PM 39.5150 -87.7564 254° West 353 406 45,000  Level Indianapolis Center
05:53PM 39.4875 -87.8778 254° West 353 406 45,000  Level Indianapolis Center
05:54PM 39.4597 -88.0014 254° West 358 412 45,000  Level Indianapolis Center
05:55PM 39.4247 -88.1517 253° West 364 419 45,000  Level Indianapolis Center
05:56PM 39.4039 -88.2444 254° West 362 417 45,000  Level Kansas City Center
05:57PM 39.3725 -88.3736 253° West 370 426 45,000  Level Kansas City Center
05:58PM 39.3425 -88.5042 253° West 377 434 45,000  Level Kansas City Center
05:59PM 39.3136 -88.6256 253° West 374 430 45,000  Level Kansas City Center
06:00PM 39.2833 -88.7547 253° West 375 432 45,000  Level Kansas City Center
06:01PM 39.2475 -88.9081 253° West 373 429 45,000  Level Kansas City Center
06:02PM 39.2169 -89.0353 253° West 373 429 45,000  Level Kansas City Center
06:03PM 39.1861 -89.1628 253° West 373 429 45,000  Level Kansas City Center
06:04PM 39.1539 -89.3044 254° West 374 430 45,000  Level Kansas City Center
06:05PM 39.1222 -89.4325 252° West 377 434 45,000  Level Kansas City Center
06:06PM 39.0914 -89.5622 253° West 380 437 45,000  Level Kansas City Center
06:07PM 39.0572 -89.7019 253° West 381 438 45,000  Level Kansas City Center
06:08PM 39.0253 -89.8311 252° West 381 438 45,000  Level Kansas City Center
06:09PM 38.9911 -89.9703 253° West 383 441 45,000  Level Kansas City Center
06:10PM 38.9475 -90.0828 244° Southwest 381 438 45,000  Level Kansas City Center
06:11PM 38.8953 -90.1967 240° Southwest 379 436 45,000  Level Kansas City Center
06:12PM 38.8400 -90.3122 238° Southwest 381 438 45,000  Level Kansas City Center
06:13PM 38.7831 -90.4294 238° Southwest 384 442 45,000  Level Kansas City Center
06:14PM 38.7264 -90.5453 238° Southwest 403 464 45,000 -480 Level Kansas City Center
06:15PM 38.6558 -90.6847 237° Southwest 391 450 44,100 -900 Descending Kansas City Center
06:16PM 38.6044 -90.7914 238° Southwest 380 437 43,200 -540 Descending Kansas City Center
06:17PM 38.5492 -90.9044 238° Southwest 379 436 43,000 -120 Descending Kansas City Center
06:18PM 38.4939 -91.0175 238° Southwest 378 435 43,000  Level Kansas City Center
06:19PM 38.4375 -91.1317 238° Southwest 381 438 43,000  Level Kansas City Center
06:20PM 38.3789 -91.2481 237° Southwest 389 448 43,000  Level Kansas City Center
06:22PM 38.3100 -91.3883 238° Southwest 390 449 43,000 -960 Level Kansas City Center
06:23PM 38.2569 -91.4936 237° Southwest 395 455 41,000 -2,160 Descending Kansas City Center
06:24PM 38.1981 -91.6108 237° Southwest 393 452 38,600 -2,400 Descending Kansas City Center
06:25PM 38.1403 -91.7261 238° Southwest 388 447 36,200 -2,640 Descending Kansas City Center
06:26PM 38.0889 -91.8750 246° West 383 441 33,300 -2,460 Descending Kansas City Center
06:28PM 38.0386 -92.1306 256° West 395 455 28,700 -2,280 Descending Kansas City Center
06:29PM 38.0200 -92.2683 260° West 395 455 26,300 -2,400 Descending Kansas City Center
06:30PM 37.9967 -92.3986 257° West 394 453 23,900 -2,400 Descending Kansas City Center
06:31PM 37.9258 -92.4928 226° Southwest 375 432 21,500 -2,640 Descending Kansas City Center
06:32PM 37.8494 -92.6011 228° Southwest 358 412 18,600 -2,640 Descending Kansas City Center
06:33PM 37.7894 -92.6811 227° Southwest 334 384 16,200 -2,040 Descending Kansas City Center
06:34PM 37.7314 -92.7642 229° Southwest 316 364 14,500 -1,680 Descending Kansas City Center
06:35PM 37.6733 -92.8439 227° Southwest 311 358 12,900 -1,560 Descending Kansas City Center
06:36PM 37.6181 -92.9178 227° Southwest 299 344 11,300 -1,500 Descending Kansas City Center
06:37PM 37.5597 -92.9889 224° Southwest 294 338 9,800 -1,560 Descending Kansas City Center
06:38PM 37.5008 -93.0606 224° Southwest 294 338 8,200 -1,500 Descending Kansas City Center
06:39PM 37.4517 -93.1350 230° Southwest 286 329 6,800 -1,440 Descending Kansas City Center
06:40PM 37.4053 -93.2083 231° Southwest 276 318 5,300 -1,440 Descending Kansas City Center
06:41PM 37.3592 -93.2825 232° Southwest 272 313 3,900 -1,380 Descending Kansas City Center
06:42PM 37.3081 -93.3508 227° Southwest 236 272 2,500 -1,140 Descending Kansas City Center
06:43PM 37.2658 -93.3722 202° Southwest 189 217 1,600 -600 Descending Kansas City Center
06:44PM 37.2292 -93.3872 198° South 180 207 1,400 -240 Descending Kansas City Center
06:46PM 37.2457 -93.3886 356° North  Level Estimated
06:53PM 37.2457 -93.3886 165° South  Level Estimated